Latest Coastal Weather Observations for Port Lincoln Airport

IDS60701

Issued at 7:45 am CST Monday 22 September 2014 (issued every 10 minutes, with the page automatically refreshed every 10 minutes)

About coastal observations | Map of coastal stations | Coastal observations for SA | Marine services | Other Formats
Station Details ID: 018192 Name: PORT LINCOLN AWS Lat: -34.60 Lon: 135.88 Height: 8.5 m
Data from the previous 72 hours. | See also: Recent months at Port Lincoln Airport
Date/Time
CST
Temp

°C
Wind Pressure Rain
since 9am
mm
Weather Cloud Vis
km
Sea
Height
m
Swell
Dir
 
Speed
knots
Gust
knots
hPa Trend Height
m
Period
s
Dir
22/07:30am 11.8 NNE 5 6 1023.5 - 0.0 - - 10 - - - -
22/07:00am 10.4 NNE 5 7 1023.4 - 0.0 - - 10 - - - -
22/06:30am 9.3 N 5 8 1023.2 - 0.0 - - 10 - - - -
22/06:00am 9.2 N 5 8 1023.3 - 0.0 - - 10 - - - -
22/05:42am 9.8 N 6 8 1023.2 - 0.0 - - 5 - - - -
22/05:30am 7.7 N 5 7 1023.1 - 0.0 - - 10 - - - -
22/05:05am 10.3 N 5 8 1023.0 - 0.0 - - 7 - - - -
22/05:00am 10.0 N 6 8 1022.9 - 0.0 - - 6 - - - -
22/04:53am 9.5 N 6 9 1022.9 - 0.0 - - 5 - - - -
22/04:30am 9.8 N 4 6 1022.8 - 0.0 - - 10 - - - -
22/04:00am 9.8 CALM 0 4 1022.9 - 0.0 - - 10 - - - -
22/03:30am 10.3 CALM 0 0 1022.9 - 0.0 - - 10 - - - -
22/03:00am 10.4 ENE 3 5 1023.1 - 0.0 - - 10 - - - -
22/02:30am 10.0 NE 4 6 1023.4 - 0.0 - - 10 - - - -
22/02:00am 11.3 NE 7 9 1023.6 - 0.0 - - 10 - - - -
22/01:30am 11.6 NNE 9 11 1024.0 - 0.0 - - 10 - - - -
22/01:00am 11.7 NNE 7 9 1024.3 - 0.0 - - 10 - - - -
22/12:30am 11.9 NNE 5 8 1024.6 - 0.0 - - 10 - - - -
22/12:00am 13.2 N 3 5 1024.8 - 0.0 - - 10 - - - -
 
Date/Time
CST
Temp

°C
Wind Pressure Rain
since 9am
mm
Weather Cloud Vis
km
Sea
Height
m
Swell
Dir
 
Speed
knots
Gust
knots
hPa Trend Height
m
Period
s
Dir
21/11:30pm 13.5 N 3 7 1025.2 - 0.0 - - 10 - - - -
21/11:00pm 12.7 N 4 8 1025.3 - 0.0 - - 10 - - - -
21/10:30pm 12.5 N 2 6 1025.4 - 0.0 - - 10 - - - -
21/10:00pm 10.7 CALM 0 0 1025.6 - 0.0 - - 10 - - - -
21/09:30pm 11.6 CALM 0 0 1025.7 - 0.0 - - 10 - - - -
21/09:00pm 13.7 NNE 2 4 1025.7 - 0.0 - - 10 - - - -
21/08:30pm 13.0 CALM 0 0 1025.7 - 0.0 - - 10 - - - -
21/08:00pm 12.6 NE 3 4 1025.6 - 0.0 - - 10 - - - -
21/07:30pm 13.5 CALM 0 0 1025.5 - 0.0 - - 10 - - - -
21/07:00pm 13.7 NNE 4 5 1025.2 - 0.0 - - 10 - - - -
21/06:30pm 15.3 NNE 5 9 1025.2 - 0.0 - - 10 - - - -
21/06:00pm 16.8 ENE 7 9 1025.3 - 0.0 - - 10 - - - -
21/05:30pm 17.9 ENE 9 13 1025.4 - 0.0 - - 10 - - - -
21/05:00pm 18.4 NE 8 12 1025.5 - 0.0 - - 10 - - - -
21/04:30pm 19.1 ENE 10 13 1025.7 - 0.0 - - 10 - - - -
21/04:00pm 19.2 ENE 10 14 1025.6 - 0.0 - - 10 - - - -
21/03:30pm 19.4 ENE 10 12 1025.8 - 0.0 - - 10 - - - -
21/03:00pm 18.9 E 11 13 1025.8 - 0.0 - - 10 - - - -
21/02:30pm 19.3 E 11 15 1026.1 - 0.0 - - 10 - - - -
21/02:00pm 19.4 ENE 11 14 1026.2 - 0.0 - - 10 - - - -
21/01:30pm 19.4 E 10 13 1026.5 - 0.0 - - 10 - - - -
21/01:00pm 19.3 E 11 15 1026.9 - 0.0 - - 10 - - - -
21/12:30pm 18.4 E 10 14 1027.3 - 0.0 - - 10 - - - -
21/12:00pm 18.8 E 10 13 1027.7 - 0.0 - - 10 - - - -
21/11:30am 18.6 E 10 13 1028.0 - 0.0 - - 10 - - - -
21/11:00am 19.2 ENE 10 13 1028.3 - 0.0 - - 10 - - - -
21/10:30am 17.9 ENE 9 12 1028.7 - 0.0 - - 10 - - - -
21/10:00am 17.3 ENE 9 11 1029.0 - 0.0 - - 10 - - - -
21/09:30am 16.9 ENE 8 10 1029.3 - 0.0 - - 10 - - - -
21/09:00am 16.1 ENE 5 8 1029.3 - 0.0 - - 10 - - - -
21/08:30am 14.8 E 2 5 1029.2 - 0.0 - - 10 - - - -
21/08:00am 12.5 NNW 3 4 1028.8 - 0.0 - - 10 - - - -
21/07:30am 9.7 NNW 5 5 1028.5 - 0.0 - - 10 - - - -
21/07:00am 7.6 NW 7 8 1028.3 - 0.0 - - 10 - - - -
21/06:30am 6.0 WNW 7 7 1027.9 - 0.0 - - 10 - - - -
21/06:00am 5.5 WNW 5 6 1027.6 - 0.0 - - 10 - - - -
21/05:30am 5.6 WNW 3 6 1027.4 - 0.0 - - 10 - - - -
21/05:00am 5.2 CALM 0 0 1027.2 - 0.0 - - 10 - - - -
21/04:30am 5.1 SSW 3 5 1027.0 - 0.0 - - 10 - - - -
21/04:00am 5.7 CALM 0 0 1026.7 - 0.0 - - 10 - - - -
21/03:30am 5.9 CALM 0 0 1026.6 - 0.0 - - 10 - - - -
21/03:00am 6.9 CALM 0 0 1026.6 - 0.0 - - 10 - - - -
21/02:30am 6.9 CALM 0 0 1026.6 - 0.0 - - 10 - - - -
21/02:00am 5.2 CALM 0 0 1026.7 - 0.0 - - 10 - - - -
21/01:30am 6.2 W 4 5 1027.0 - 0.0 - - 10 - - - -
21/01:00am 7.0 W 3 4 1026.9 - 0.0 - - 10 - - - -
21/12:30am 6.5 SW 4 5 1027.1 - 0.0 - - 10 - - - -
21/12:00am 6.5 WSW 3 4 1027.1 - 0.0 - - 10 - - - -
 
Date/Time
CST
Temp

°C
Wind Pressure Rain
since 9am
mm
Weather Cloud Vis
km
Sea
Height
m
Swell
Dir
 
Speed
knots
Gust
knots
hPa Trend Height
m
Period
s
Dir
20/11:30pm 7.0 W 3 4 1027.2 - 0.0 - - 10 - - - -
20/11:00pm 6.7 W 3 5 1027.4 - 0.0 - - 10 - - - -
20/10:30pm 7.5 WNW 5 6 1027.4 - 0.0 - - 10 - - - -
20/10:00pm 7.3 WNW 4 5 1027.4 - 0.0 - - 10 - - - -
20/09:30pm 7.5 WNW 5 7 1027.3 - 0.0 - - 10 - - - -
20/09:00pm 7.8 WNW 4 6 1027.1 - 0.0 - - 10 - - - -
20/08:30pm 8.2 W 3 5 1026.8 - 0.0 - - 10 - - - -
20/08:00pm 8.3 W 4 5 1026.5 - 0.0 - - 10 - - - -
20/07:30pm 8.9 CALM 0 0 1026.1 - 0.0 - - 10 - - - -
20/07:00pm 11.1 CALM 0 0 1025.6 - 0.0 - - 10 - - - -
20/06:30pm 13.7 SSE 4 4 1025.2 - 0.0 - - 10 - - - -
20/06:00pm 15.1 SSE 5 5 1024.9 - 0.0 - - 10 - - - -
20/05:30pm 16.6 SSE 4 5 1024.8 - 0.0 - - 10 - - - -
20/05:00pm 16.9 SSE 6 8 1024.6 - 0.0 - - 10 - - - -
20/04:30pm 17.6 E 7 9 1024.2 - 0.0 - - 10 - - - -
20/04:00pm 17.5 E 8 9 1023.6 - 0.0 - - 10 - - - -
20/03:30pm 17.4 ENE 9 11 1023.4 - 0.0 - - 10 - - - -
20/03:00pm 17.9 E 11 14 1023.3 - 0.0 - - 10 - - - -
20/02:30pm 17.5 ENE 10 14 1023.3 - 0.0 - - 10 - - - -
20/02:00pm 18.7 E 9 11 1023.4 - 0.0 - - 10 - - - -
20/01:30pm 18.3 E 8 11 1023.5 - 0.0 - - 10 - - - -
20/01:00pm 19.0 ENE 9 11 1023.6 - 0.0 - - 10 - - - -
20/12:30pm 18.4 E 8 11 1024.0 - 0.0 - - 10 - - - -
20/12:00pm 18.1 E 8 11 1024.3 - 0.0 - - 10 - - - -
20/11:30am 18.1 E 7 9 1024.4 - 0.0 - - 10 - - - -
20/11:00am 17.5 E 7 9 1024.6 - 0.0 - - 10 - - - -
20/10:30am 18.0 E 6 9 1024.9 - 0.0 - - 10 - - - -
20/10:00am 17.3 E 3 8 1025.2 - 0.0 - - 10 - - - -
20/09:30am 16.9 E 5 8 1025.2 - 0.0 - - 10 - - - -
20/09:00am 16.4 E 4 6 1024.8 - 0.0 - - 10 - - - -
20/08:30am 14.9 N 1 4 1024.5 - 0.0 - - 10 - - - -
20/08:00am 12.3 NNW 4 4 1024.4 - 0.0 - - 10 - - - -
20/07:30am 9.8 NW 5 6 1024.1 - 0.0 - - 10 - - - -
20/07:00am 7.0 W 5 6 1023.7 - 0.0 - - 10 - - - -
20/06:30am 5.8 CALM 0 0 1023.3 - 0.0 - - 10 - - - -
20/06:00am 5.9 CALM 0 0 1023.1 - 0.0 - Mostly clear 10 - - - -
20/05:30am 6.7 SSW 4 4 1022.7 - 0.0 - - 10 - - - -
20/05:00am 6.6 WSW 4 5 1022.3 - 0.0 - - 10 - - - -
20/04:30am 6.4 W 5 5 1021.9 - 0.0 - - 10 - - - -
20/04:00am 6.2 W 3 4 1021.7 - 0.0 - - 10 - - - -
20/03:30am 6.3 W 4 5 1021.6 - 0.0 - - 10 - - - -
20/03:00am 5.4 WNW 3 4 1021.6 - 0.0 - - 10 - - - -
20/02:30am 5.5 NW 4 4 1021.7 - 0.0 - - 10 - - - -
20/02:00am 6.0 NW 4 5 1021.9 - 0.0 - - 10 - - - -
20/01:30am 5.4 NNW 3 4 1022.2 - 0.0 - - 10 - - - -
20/01:00am 5.8 NNW 3 4 1022.3 - 0.0 - - 10 - - - -
20/12:30am 6.0 N 2 4 1022.4 - 0.0 - - 10 - - - -
20/12:00am 6.8 NW 4 6 1022.7 - 0.0 - - 10 - - - -
 
Date/Time
CST
Temp

°C
Wind Pressure Rain
since 9am
mm
Weather Cloud Vis
km
Sea
Height
m
Swell
Dir
 
Speed
knots
Gust
knots
hPa Trend Height
m
Period
s
Dir
19/11:30pm 6.4 WNW 5 5 1022.8 - 0.0 - - 10 - - - -
19/11:00pm 6.7 WNW 4 5 1022.9 - 0.0 - - 10 - - - -
19/10:30pm 7.1 W 3 5 1023.2 - 0.0 - - 10 - - - -
19/10:00pm 7.4 CALM 0 0 1022.9 - 0.0 - - 10 - - - -
19/09:30pm 7.4 CALM 0 0 1023.0 - 0.0 - - 10 - - - -
19/09:00pm 7.7 CALM 0 0 1023.3 - 0.0 - Mostly cloudy 10 - - - -
19/08:30pm 7.9 CALM 0 0 1023.4 - 0.0 - - 10 - - - -
19/08:00pm 7.6 CALM 0 0 1023.2 - 0.0 - - 10 - - - -
19/07:30pm 10.5 E 4 5 1023.0 - 0.0 - - 10 - - - -
19/07:00pm 10.4 ESE 5 6 1022.9 - 0.0 - - 10 - - - -
19/06:30pm 11.2 ESE 6 7 1022.9 - 0.0 - - 10 - - - -
19/06:00pm 12.7 E 7 9 1022.7 - 0.0 - - 10 - - - -
19/05:30pm 13.5 E 8 10 1022.4 - 0.0 - - 10 - - - -
19/05:00pm 14.4 E 10 12 1022.0 - 0.0 - - 10 - - - -
19/04:30pm 15.1 E 10 12 1022.0 - 0.0 - - 10 - - - -
19/04:00pm 15.3 E 11 14 1021.9 - 0.0 - - 10 - - - -
19/03:30pm 15.0 E 11 13 1022.2 - 0.0 - - 10 - - - -
19/03:00pm 15.2 E 11 15 1022.4 - 0.0 - - 10 - - - -
19/02:30pm 15.5 E 12 14 1022.6 - 0.0 - - 10 - - - -
19/02:00pm 15.5 E 12 16 1022.8 - 0.0 - - 10 - - - -
19/01:30pm 15.6 E 12 15 1023.3 - 0.0 - - 10 - - - -
19/01:00pm 16.1 E 12 15 1023.6 - 0.0 - - 10 - - - -
19/12:30pm 15.7 ENE 12 15 1024.0 - 0.0 - - 10 - - - -
19/12:00pm 15.5 ENE 11 15 1024.4 - 0.0 - - 10 - - - -
19/11:30am 15.8 ENE 13 16 1024.7 - 0.0 - - 10 - - - -
19/11:00am 15.6 ENE 13 17 1024.9 - 0.0 - Partly cloudy 10 - - - -
19/10:30am 15.0 ENE 13 16 1025.2 - 0.0 - Partly cloudy 10 - - - -
19/10:00am 15.0 ENE 14 17 1025.3 - 0.0 - Partly cloudy 10 - - - -
19/09:30am 14.8 ENE 13 18 1025.5 - 0.0 - Partly cloudy 10 - - - -
19/09:00am 14.7 ENE 13 16 1025.6 - 0.0 - Cloudy 10 - - - -
19/08:30am 14.6 ENE 13 16 1025.5 - 0.0 - Partly cloudy 10 - - - -
19/08:00am 13.8 E 12 17 1025.4 - 0.0 - Partly cloudy 10 - - - -

Other Formats:

Comma delimited format used in spreadsheet applications
http://www.bom.gov.au/fwo/IDS60701/IDS60701.95661.axf

JavaScript Object Notation format (JSON) in row-major order
http://www.bom.gov.au/fwo/IDS60701/IDS60701.95661.json